Time;durP1;ratioP1;P1;durP2;ratioP2;P2;SDS_P1;SDS_P2;PMS_P1;PMS_P2;Temp;Humidity;BMP_temperature;BMP_pressure;BME280_temperature;BME280_humidity;BME280_pressure;Samples;Min_cycle;Max_cycle;Signal;HPM_P1;HPM_P2
2021/10/14 00:01:10;;;;;;;11.27;5.90;;;;;;;;;;5094165;28;20439;-74
2021/10/14 00:03:37;;;;;;;7.63;6.83;;;;;;;;;;5094859;28;20467;-74
2021/10/14 00:06:05;;;;;;;9.80;7.00;;;;;;;;;;5094314;28;20835;-74
2021/10/14 00:08:32;;;;;;;11.90;6.30;;;;;;;;;;5094628;28;20796;-74
2021/10/14 00:11:00;;;;;;;6.47;5.83;;;;;;;;;;5094352;28;20446;-74
2021/10/14 00:13:27;;;;;;;8.20;5.33;;;;;;;;;;5094232;28;20455;-74
2021/10/14 00:15:55;;;;;;;6.40;4.87;;;;;;;;;;5093910;28;20447;-74
2021/10/14 00:18:22;;;;;;;12.37;7.90;;;;;;;;;;5094250;28;20431;-74
2021/10/14 00:20:49;;;;;;;5.63;4.80;;;;;;;;;;5094948;28;20442;-75
2021/10/14 00:23:17;;;;;;;7.57;5.90;;;;;;;;;;5094341;28;20436;-76
2021/10/14 00:25:44;;;;;;;13.23;5.73;;;;;;;;;;5094019;28;20439;-76
2021/10/14 00:28:12;;;;;;;6.53;5.93;;;;;;;;;;5094204;28;20444;-76
2021/10/14 00:30:39;;;;;;;12.83;7.30;;;;;;;;;;5094217;28;20439;-77
2021/10/14 00:33:07;;;;;;;6.73;5.97;;;;;;;;;;5093635;28;20447;-75
2021/10/14 00:35:34;;;;;;;9.20;6.77;;;;;;;;;;5093607;28;20435;-76
2021/10/14 00:38:01;;;;;;;15.00;7.13;;;;;;;;;;5094235;28;20447;-76
2021/10/14 00:40:29;;;;;;;11.03;6.03;;;;;;;;;;5093858;28;20440;-76
2021/10/14 00:42:56;;;;;;;11.23;6.70;;;;;;;;;;5094032;28;20444;-77
2021/10/14 00:45:24;;;;;;;10.90;6.87;;;;;;;;;;5093427;28;20443;-76
2021/10/14 00:47:52;;;;;;;7.17;6.30;;;;;;;;;;5094211;28;20807;-76
2021/10/14 00:50:19;;;;;;;7.10;6.00;;;;;;;;;;5093601;28;20444;-77
2021/10/14 00:52:46;;;;;;;6.13;5.10;;;;;;;;;;5093371;28;20451;-76
2021/10/14 00:55:14;;;;;;;12.00;6.87;;;;;;;;;;5093655;28;20446;-77
2021/10/14 00:57:41;;;;;;;10.63;6.53;;;;;;;;;;5093944;28;20436;-77
2021/10/14 01:00:09;;;;;;;17.80;7.43;;;;;;;;;;5093594;28;20534;-77
2021/10/14 01:02:38;;;;;;;6.10;5.30;;;;;;;;;;5093614;28;20435;-78
2021/10/14 01:05:05;;;;;;;7.73;5.50;;;;;;;;;;5093931;28;20428;-77
2021/10/14 01:07:33;;;;;;;9.03;5.67;;;;;;;;;;5096817;28;20478;-78
2021/10/14 01:10:00;;;;;;;10.30;6.23;;;;;;;;;;5100027;28;20442;-78
2021/10/14 01:12:27;;;;;;;10.33;6.43;;;;;;;;;;5100114;28;20439;-77
2021/10/14 01:14:55;;;;;;;9.90;6.20;;;;;;;;;;5100272;28;20453;-78
2021/10/14 01:17:22;;;;;;;10.10;5.57;;;;;;;;;;5100118;28;20439;-79
2021/10/14 01:19:50;;;;;;;9.93;5.40;;;;;;;;;;5099891;28;20926;-79
2021/10/14 01:22:17;;;;;;;13.53;6.70;;;;;;;;;;5100163;28;20439;-79
2021/10/14 01:24:47;;;;;;;11.93;6.33;;;;;;;;;;5100406;28;20446;-79
2021/10/14 01:27:14;;;;;;;6.20;5.60;;;;;;;;;;5100278;28;20485;-78
2021/10/14 01:29:42;;;;;;;16.17;6.70;;;;;;;;;;5100097;28;20444;-79
2021/10/14 01:32:09;;;;;;;10.17;5.70;;;;;;;;;;5099770;28;20445;-79
2021/10/14 01:34:36;;;;;;;8.00;6.33;;;;;;;;;;5100625;28;20450;-80
2021/10/14 01:37:04;;;;;;;7.93;6.40;;;;;;;;;;5100012;28;20448;-80
2021/10/14 01:39:32;;;;;;;11.50;6.97;;;;;;;;;;5100008;28;20443;-80
2021/10/14 01:41:59;;;;;;;12.53;6.77;;;;;;;;;;5100099;28;20450;-80
2021/10/14 01:44:26;;;;;;;9.37;6.83;;;;;;;;;;5099653;28;20980;-80
2021/10/14 01:46:53;;;;;;;10.70;5.63;;;;;;;;;;5099532;28;20985;-81
2021/10/14 01:49:21;;;;;;;9.13;7.13;;;;;;;;;;5099628;28;20906;-81
2021/10/14 01:51:48;;;;;;;9.07;6.70;;;;;;;;;;5099597;28;20443;-81
2021/10/14 01:54:17;;;;;;;8.07;6.73;;;;;;;;;;5099971;28;20439;-79
2021/10/14 01:56:44;;;;;;;10.13;6.17;;;;;;;;;;5100172;28;20448;-81
2021/10/14 01:59:11;;;;;;;11.60;8.13;;;;;;;;;;5099503;28;20929;-81
2021/10/14 02:01:38;;;;;;;13.23;9.30;;;;;;;;;;5099463;28;20443;-81
2021/10/14 02:04:05;;;;;;;12.37;8.43;;;;;;;;;;5099696;28;20478;-82
2021/10/14 02:06:32;;;;;;;11.00;7.83;;;;;;;;;;5100261;28;20479;-81
2021/10/14 02:09:00;;;;;;;13.77;8.40;;;;;;;;;;5099800;28;20437;-80
2021/10/14 02:11:28;;;;;;;13.00;8.57;;;;;;;;;;5099740;28;20454;-81
2021/10/14 02:13:56;;;;;;;17.53;9.03;;;;;;;;;;5099911;28;20461;-81
2021/10/14 02:16:24;;;;;;;19.60;9.43;;;;;;;;;;5099948;28;20612;-81
2021/10/14 02:18:51;;;;;;;12.13;8.50;;;;;;;;;;5097557;28;20478;-81
2021/10/14 02:21:18;;;;;;;16.67;9.87;;;;;;;;;;5096514;28;20450;-82
2021/10/14 02:23:45;;;;;;;17.47;9.00;;;;;;;;;;5096118;28;20938;-82
2021/10/14 02:26:13;;;;;;;12.43;8.10;;;;;;;;;;5096661;28;20461;-81
2021/10/14 02:28:41;;;;;;;16.63;10.93;;;;;;;;;;5096314;28;20440;-82
2021/10/14 02:31:08;;;;;;;10.10;8.80;;;;;;;;;;5096583;28;20439;-82
2021/10/14 02:33:36;;;;;;;14.33;10.47;;;;;;;;;;5096661;28;20446;-81
2021/10/14 02:36:03;;;;;;;12.80;10.73;;;;;;;;;;5096321;28;20435;-83
2021/10/14 02:38:30;;;;;;;12.03;10.03;;;;;;;;;;5095991;28;20450;-82
2021/10/14 02:40:57;;;;;;;20.53;12.70;;;;;;;;;;5095858;28;20454;-82
2021/10/14 02:43:24;;;;;;;15.77;11.63;;;;;;;;;;5096027;28;20448;-82
2021/10/14 02:45:53;;;;;;;16.30;12.00;;;;;;;;;;5096527;28;20930;-81
2021/10/14 02:48:20;;;;;;;18.63;11.57;;;;;;;;;;5096585;28;20486;-81
2021/10/14 02:50:48;;;;;;;18.60;12.23;;;;;;;;;;5096035;28;20450;-83
2021/10/14 02:53:15;;;;;;;12.70;10.43;;;;;;;;;;5095634;28;20444;-82
2021/10/14 02:55:42;;;;;;;16.73;14.17;;;;;;;;;;5095494;28;20431;-81
2021/10/14 02:58:09;;;;;;;15.80;12.30;;;;;;;;;;5095489;28;20929;-81
2021/10/14 03:00:36;;;;;;;18.77;13.10;;;;;;;;;;5095414;28;20453;-81
2021/10/14 03:03:05;;;;;;;17.93;12.07;;;;;;;;;;5095699;28;20638;-82
2021/10/14 03:05:32;;;;;;;18.47;12.67;;;;;;;;;;5095861;28;20443;-81
2021/10/14 03:07:59;;;;;;;20.30;13.43;;;;;;;;;;5095588;28;20562;-81
2021/10/14 03:10:26;;;;;;;26.17;13.50;;;;;;;;;;5095867;28;20446;-80
2021/10/14 03:12:54;;;;;;;21.90;15.13;;;;;;;;;;5095573;28;20450;-80
2021/10/14 03:15:21;;;;;;;19.17;15.00;;;;;;;;;;5095423;28;20443;-80
2021/10/14 03:17:48;;;;;;;21.67;15.47;;;;;;;;;;5095123;28;20953;-81
2021/10/14 03:20:17;;;;;;;22.37;15.07;;;;;;;;;;5095369;28;20444;-80
2021/10/14 03:22:44;;;;;;;22.13;15.43;;;;;;;;;;5094963;28;20475;-80
2021/10/14 03:25:11;;;;;;;16.87;13.43;;;;;;;;;;5094856;28;20454;-80
2021/10/14 03:27:38;;;;;;;25.43;14.13;;;;;;;;;;5095529;28;20481;-81
2021/10/14 03:30:06;;;;;;;19.47;14.67;;;;;;;;;;5094995;28;20442;-80
2021/10/14 03:32:33;;;;;;;19.90;15.00;;;;;;;;;;5094738;28;20440;-81
2021/10/14 03:35:00;;;;;;;20.97;16.13;;;;;;;;;;5094744;28;20938;-81
2021/10/14 03:37:29;;;;;;;20.10;15.10;;;;;;;;;;5095041;28;20451;-81
2021/10/14 03:39:56;;;;;;;22.00;15.73;;;;;;;;;;5094718;28;20444;-81
2021/10/14 03:42:23;;;;;;;26.57;17.07;;;;;;;;;;5094923;28;20438;-81
2021/10/14 03:44:51;;;;;;;24.10;17.90;;;;;;;;;;5095081;28;20453;-81
2021/10/14 03:47:18;;;;;;;26.57;19.13;;;;;;;;;;5094812;28;20483;-81
2021/10/14 03:49:45;;;;;;;33.77;19.30;;;;;;;;;;5095055;28;20436;-80
2021/10/14 03:52:12;;;;;;;25.90;17.23;;;;;;;;;;5094917;28;20441;-80
2021/10/14 03:54:41;;;;;;;26.43;19.50;;;;;;;;;;5094852;28;20201;-81
2021/10/14 03:57:08;;;;;;;31.63;20.60;;;;;;;;;;5094395;28;20952;-81
2021/10/14 03:59:35;;;;;;;31.37;19.37;;;;;;;;;;5095146;28;20447;-80
2021/10/14 04:02:02;;;;;;;35.30;22.53;;;;;;;;;;5095292;28;20442;-80
2021/10/14 04:04:29;;;;;;;37.30;23.00;;;;;;;;;;5094204;28;20541;-81
2021/10/14 04:06:56;;;;;;;33.95;22.65;;;;;;;;;;5094548;28;20440;-80
2021/10/14 04:09:24;;;;;;;36.60;25.47;;;;;;;;;;5094539;28;20204;-82
2021/10/14 04:11:52;;;;;;;37.77;22.03;;;;;;;;;;5094800;28;20444;-77
2021/10/14 04:14:19;;;;;;;36.60;24.17;;;;;;;;;;5094501;28;20455;-78
2021/10/14 04:16:46;;;;;;;36.50;23.87;;;;;;;;;;5094578;28;20436;-77
2021/10/14 04:19:14;;;;;;;33.60;24.30;;;;;;;;;;5093855;28;20446;-77
2021/10/14 04:21:41;;;;;;;37.53;26.33;;;;;;;;;;5093780;28;20447;-72
2021/10/14 04:24:08;;;;;;;39.23;26.47;;;;;;;;;;5093731;28;20887;-72
2021/10/14 04:26:35;;;;;;;44.47;26.07;;;;;;;;;;5093269;28;20449;-73
2021/10/14 04:29:04;;;;;;;33.50;23.13;;;;;;;;;;5093014;28;20467;-73
2021/10/14 04:31:31;;;;;;;39.40;23.53;;;;;;;;;;5093457;28;20448;-72
2021/10/14 04:33:58;;;;;;;42.97;26.23;;;;;;;;;;5093492;28;20431;-71
2021/10/14 04:36:26;;;;;;;43.00;27.30;;;;;;;;;;5093001;28;20453;-72
2021/10/14 04:38:53;;;;;;;40.37;26.07;;;;;;;;;;5093606;28;20443;-73
2021/10/14 04:41:20;;;;;;;45.80;28.27;;;;;;;;;;5093770;28;20475;-71
2021/10/14 04:43:47;;;;;;;51.60;28.57;;;;;;;;;;5093812;28;20451;-73
2021/10/14 04:46:16;;;;;;;41.87;27.53;;;;;;;;;;5093954;28;20968;-72
2021/10/14 04:48:43;;;;;;;43.60;28.27;;;;;;;;;;5094149;28;20510;-72
2021/10/14 04:51:10;;;;;;;53.03;29.90;;;;;;;;;;5093636;28;20446;-72
2021/10/14 04:53:37;;;;;;;47.87;30.33;;;;;;;;;;5093604;28;20802;-71
2021/10/14 04:56:05;;;;;;;55.73;32.30;;;;;;;;;;5093728;28;20452;-71
2021/10/14 04:58:32;;;;;;;53.77;32.20;;;;;;;;;;5093491;28;20453;-71
2021/10/14 05:00:59;;;;;;;56.80;36.57;;;;;;;;;;5094019;28;20450;-71
2021/10/14 05:03:28;;;;;;;51.43;30.37;;;;;;;;;;5092554;28;20470;-70
2021/10/14 05:05:55;;;;;;;62.90;36.27;;;;;;;;;;5093532;28;20438;-73
2021/10/14 05:08:22;;;;;;;64.00;34.00;;;;;;;;;;5093062;28;20473;-72
2021/10/14 05:10:49;;;;;;;56.50;34.90;;;;;;;;;;5093031;28;20933;-72
2021/10/14 05:13:17;;;;;;;76.70;34.27;;;;;;;;;;5093435;28;20809;-68
2021/10/14 05:15:44;;;;;;;64.03;36.37;;;;;;;;;;5093197;28;20443;-74
2021/10/14 05:18:11;;;;;;;58.80;36.57;;;;;;;;;;5093335;28;20446;-75
2021/10/14 05:20:40;;;;;;;59.80;34.28;;;;;;;;;;5093693;28;20442;-75
2021/10/14 05:23:07;;;;;;;71.10;33.20;;;;;;;;;;5093013;28;20197;-76
2021/10/14 05:25:34;;;;;;;57.80;31.93;;;;;;;;;;5093128;28;20450;-76
2021/10/14 05:28:01;;;;;;;62.40;31.83;;;;;;;;;;5093212;28;21013;-76
2021/10/14 05:30:28;;;;;;;52.70;31.37;;;;;;;;;;5092971;28;20447;-78
2021/10/14 05:32:56;;;;;;;74.37;35.37;;;;;;;;;;5092854;28;20934;-77
2021/10/14 05:35:23;;;;;;;75.30;36.50;;;;;;;;;;5093219;28;20439;-75
2021/10/14 05:37:51;;;;;;;77.97;36.27;;;;;;;;;;5093180;28;20439;-71
2021/10/14 05:40:18;;;;;;;54.50;30.47;;;;;;;;;;5093639;28;20444;-70
2021/10/14 05:42:46;;;;;;;70.47;36.23;;;;;;;;;;5093455;28;20454;-71
2021/10/14 05:45:13;;;;;;;81.17;38.73;;;;;;;;;;5092686;28;20530;-70
2021/10/14 05:47:41;;;;;;;69.67;36.40;;;;;;;;;;5092584;28;20506;-71
2021/10/14 05:50:09;;;;;;;68.53;38.07;;;;;;;;;;5092985;28;20539;-71
2021/10/14 05:52:36;;;;;;;70.63;36.70;;;;;;;;;;5093037;28;20439;-70
2021/10/14 05:55:05;;;;;;;73.73;37.60;;;;;;;;;;5095952;28;20439;-71
2021/10/14 05:57:32;;;;;;;68.13;34.53;;;;;;;;;;5096848;28;20436;-70
2021/10/14 05:59:59;;;;;;;67.40;36.40;;;;;;;;;;5097410;28;20444;-71
2021/10/14 06:02:26;;;;;;;78.70;37.60;;;;;;;;;;5096743;28;20436;-71
2021/10/14 06:04:54;;;;;;;86.80;43.70;;;;;;;;;;5097295;28;20470;-72
2021/10/14 06:07:21;;;;;;;85.60;38.50;;;;;;;;;;5096351;28;20983;-72
2021/10/14 06:09:49;;;;;;;68.60;36.13;;;;;;;;;;5096670;28;20490;-71
2021/10/14 06:12:18;;;;;;;62.60;30.70;;;;;;;;;;5096514;28;20435;-72
2021/10/14 06:14:45;;;;;;;69.27;37.50;;;;;;;;;;5096750;28;20454;-73
2021/10/14 06:17:12;;;;;;;59.00;32.47;;;;;;;;;;5096156;28;20440;-72
2021/10/14 06:19:40;;;;;;;67.43;33.80;;;;;;;;;;5096358;28;20455;-72
2021/10/14 06:22:07;;;;;;;66.23;34.80;;;;;;;;;;5096353;28;20436;-73
2021/10/14 06:24:34;;;;;;;57.37;31.30;;;;;;;;;;5096406;28;20439;-73
2021/10/14 06:27:11;;;;;;;;;;;;;;;;;;;;;
2021/10/14 06:29:42;;;;;;;59.97;28.10;;;;;;;;;;5095921;28;20471;-72
2021/10/14 06:32:10;;;;;;;54.00;31.60;;;;;;;;;;5096410;28;20450;-72
2021/10/14 06:34:37;;;;;;;63.93;35.03;;;;;;;;;;5096137;28;20450;-73
2021/10/14 06:37:04;;;;;;;61.97;32.50;;;;;;;;;;5096121;28;20440;-73
2021/10/14 06:39:31;;;;;;;58.37;29.10;;;;;;;;;;5096392;28;20443;-74
2021/10/14 06:42:01;;;;;;;75.77;35.40;;;;;;;;;;5096139;28;20458;-74
2021/10/14 06:44:28;;;;;;;69.87;37.07;;;;;;;;;;5096330;28;20872;-74
2021/10/14 06:46:57;;;;;;;65.83;36.60;;;;;;;;;;5096087;28;20789;-74
2021/10/14 06:49:24;;;;;;;64.27;33.20;;;;;;;;;;5095852;28;20566;-74
2021/10/14 06:51:53;;;;;;;80.17;40.57;;;;;;;;;;5095856;28;20447;-74
2021/10/14 06:54:20;;;;;;;76.60;38.30;;;;;;;;;;5095940;28;20469;-73
2021/10/14 06:56:48;;;;;;;72.67;37.03;;;;;;;;;;5096772;28;20450;-73
2021/10/14 06:59:16;;;;;;;69.43;33.33;;;;;;;;;;5095848;28;20529;-73
2021/10/14 07:01:45;;;;;;;76.63;39.23;;;;;;;;;;5095514;28;20471;-73
2021/10/14 07:04:14;;;;;;;77.83;39.00;;;;;;;;;;5095296;28;20479;-73
2021/10/14 07:06:43;;;;;;;83.20;40.33;;;;;;;;;;5095144;28;20446;-75
2021/10/14 07:09:10;;;;;;;88.10;40.23;;;;;;;;;;5095661;28;20824;-74
2021/10/14 07:11:42;;;;;;;84.90;42.40;;;;;;;;;;5095340;28;20466;-74
2021/10/14 07:14:11;;;;;;;83.30;40.03;;;;;;;;;;5095624;28;20455;-73
2021/10/14 07:16:38;;;;;;;78.93;40.13;;;;;;;;;;5095032;28;20443;-71
2021/10/14 07:19:05;;;;;;;84.37;36.00;;;;;;;;;;5095244;28;20450;-71
2021/10/14 07:21:34;;;;;;;91.25;39.28;;;;;;;;;;5095115;28;20435;-70
2021/10/14 07:24:01;;;;;;;95.60;38.90;;;;;;;;;;5094876;28;20241;-72
2021/10/14 07:26:29;;;;;;;91.10;40.03;;;;;;;;;;5094694;28;20973;-71
2021/10/14 07:28:57;;;;;;;97.13;42.80;;;;;;;;;;5095341;28;20475;-70
2021/10/14 07:31:24;;;;;;;76.03;37.27;;;;;;;;;;5095299;28;20803;-71
2021/10/14 07:33:51;;;;;;;89.37;39.87;;;;;;;;;;5094995;28;20434;-71
2021/10/14 07:36:19;;;;;;;100.57;42.50;;;;;;;;;;5094766;28;20942;-73
2021/10/14 07:38:47;;;;;;;94.60;40.57;;;;;;;;;;5094871;28;20530;-71
2021/10/14 07:41:14;;;;;;;82.23;34.80;;;;;;;;;;5094838;28;20765;-71
2021/10/14 07:43:42;;;;;;;91.77;40.07;;;;;;;;;;5094770;28;20455;-71
2021/10/14 07:46:09;;;;;;;82.37;39.00;;;;;;;;;;5095050;28;20439;-71
2021/10/14 07:48:36;;;;;;;97.20;40.73;;;;;;;;;;5094352;28;20558;-71
2021/10/14 07:51:04;;;;;;;92.30;40.17;;;;;;;;;;5094701;28;20797;-72
2021/10/14 07:53:31;;;;;;;90.90;39.43;;;;;;;;;;5095201;28;20447;-71
2021/10/14 07:55:59;;;;;;;80.30;36.93;;;;;;;;;;5094452;28;20454;-72
2021/10/14 07:58:27;;;;;;;74.40;32.20;;;;;;;;;;5094652;28;20454;-72
2021/10/14 08:00:54;;;;;;;74.10;31.60;;;;;;;;;;5094775;28;20436;-72
2021/10/14 08:03:21;;;;;;;79.63;38.50;;;;;;;;;;5094663;28;20468;-72
2021/10/14 08:05:48;;;;;;;63.27;31.97;;;;;;;;;;5094256;28;20453;-72
2021/10/14 08:08:15;;;;;;;73.10;35.50;;;;;;;;;;5094509;28;20443;-72
2021/10/14 08:10:43;;;;;;;60.03;31.50;;;;;;;;;;5094542;28;20451;-73
2021/10/14 08:13:14;;;;;;;68.67;33.10;;;;;;;;;;5093238;28;20444;-73
2021/10/14 08:15:41;;;;;;;66.93;34.23;;;;;;;;;;5094428;28;20919;-72
2021/10/14 08:18:09;;;;;;;66.77;31.17;;;;;;;;;;5093358;28;20505;-72
2021/10/14 08:20:36;;;;;;;64.90;32.00;;;;;;;;;;5094449;28;20446;-73
2021/10/14 08:23:04;;;;;;;59.07;30.00;;;;;;;;;;5094181;28;20526;-73
2021/10/14 08:25:31;;;;;;;72.60;34.57;;;;;;;;;;5095398;28;20864;-73
2021/10/14 08:27:58;;;;;;;83.23;41.47;;;;;;;;;;5094959;28;20446;-72
2021/10/14 08:30:33;;;;;;;63.43;35.23;;;;;;;;;;5094089;28;20558;-73
2021/10/14 08:33:00;;;;;;;70.80;35.23;;;;;;;;;;5094454;28;20423;-73
2021/10/14 08:35:27;;;;;;;76.80;38.23;;;;;;;;;;5093573;28;20439;-73
2021/10/14 08:37:56;;;;;;;77.17;39.97;;;;;;;;;;5093652;28;20521;-73
2021/10/14 08:40:23;;;;;;;79.70;40.37;;;;;;;;;;5093723;28;20440;-73
2021/10/14 08:42:50;;;;;;;80.60;41.60;;;;;;;;;;5094258;28;20439;-74
2021/10/14 08:45:17;;;;;;;85.47;43.80;;;;;;;;;;5093143;28;20435;-74
2021/10/14 08:47:46;;;;;;;102.57;49.93;;;;;;;;;;5093656;28;20546;-74
2021/10/14 08:50:13;;;;;;;100.20;46.63;;;;;;;;;;5093421;28;20570;-74
2021/10/14 08:52:40;;;;;;;91.23;46.40;;;;;;;;;;5093373;28;20444;-74
2021/10/14 08:55:08;;;;;;;105.37;51.80;;;;;;;;;;5092989;28;20444;-74
2021/10/14 08:57:35;;;;;;;97.07;48.47;;;;;;;;;;5092900;28;20527;-74
2021/10/14 09:00:02;;;;;;;98.63;48.53;;;;;;;;;;5093063;28;20444;-74
2021/10/14 09:02:30;;;;;;;101.43;47.57;;;;;;;;;;5093203;28;20452;-74
2021/10/14 09:05:02;;;;;;;96.07;47.67;;;;;;;;;;5093062;28;20446;-74
2021/10/14 09:07:31;;;;;;;95.60;46.83;;;;;;;;;;5093669;28;20506;-74
2021/10/14 09:10:00;;;;;;;83.83;41.40;;;;;;;;;;5093054;28;20830;-75
2021/10/14 09:12:32;;;;;;;87.07;44.90;;;;;;;;;;5092889;28;20505;-74
2021/10/14 09:15:03;;;;;;;73.93;42.13;;;;;;;;;;5093012;28;20428;-75
2021/10/14 09:17:54;;;;;;;83.47;45.30;;;;;;;;;;5093618;28;20428;-75
2021/10/14 09:20:45;;;;;;;86.27;45.40;;;;;;;;;;5078393;28;20455;-75
2021/10/14 09:23:16;;;;;;;86.40;44.30;;;;;;;;;;5092785;28;20874;-75
2021/10/14 09:25:44;;;;;;;82.87;44.87;;;;;;;;;;5093281;28;20569;-75
2021/10/14 09:28:13;;;;;;;61.93;34.30;;;;;;;;;;5094224;28;20443;-76
2021/10/14 09:30:44;;;;;;;68.27;41.87;;;;;;;;;;5097437;28;20561;-76
2021/10/14 09:33:26;;;;;;;66.27;38.10;;;;;;;;;;5096994;28;20526;-76
2021/10/14 09:35:53;;;;;;;71.80;41.10;;;;;;;;;;5097220;28;20438;-76
2021/10/14 09:38:33;;;;;;;71.27;43.57;;;;;;;;;;5096457;28;20439;-76
2021/10/14 09:41:03;;;;;;;66.37;39.47;;;;;;;;;;5097091;28;20427;-76
2021/10/14 09:43:31;;;;;;;66.23;35.03;;;;;;;;;;5096381;28;20546;-76
2021/10/14 09:45:58;;;;;;;62.23;41.80;;;;;;;;;;5096667;28;20443;-76
2021/10/14 09:48:25;;;;;;;62.63;39.83;;;;;;;;;;5096370;28;20447;-76
2021/10/14 09:50:54;;;;;;;55.47;35.70;;;;;;;;;;5096573;28;20481;-76
2021/10/14 09:53:22;;;;;;;59.80;37.43;;;;;;;;;;5097091;28;20450;-76
2021/10/14 09:55:51;;;;;;;55.90;33.23;;;;;;;;;;5097098;28;20439;-76
2021/10/14 09:58:19;;;;;;;59.20;35.00;;;;;;;;;;5097121;28;21005;-76
2021/10/14 10:00:47;;;;;;;63.30;36.97;;;;;;;;;;5096227;28;20443;-76
2021/10/14 10:03:16;;;;;;;62.67;39.47;;;;;;;;;;5096250;28;20555;-76
2021/10/14 10:05:46;;;;;;;58.70;35.73;;;;;;;;;;5096828;28;20753;-76
2021/10/14 10:08:15;;;;;;;49.60;35.53;;;;;;;;;;5096401;28;20428;-76
2021/10/14 10:10:44;;;;;;;55.03;36.37;;;;;;;;;;5096250;28;20911;-76
2021/10/14 10:13:13;;;;;;;60.23;35.90;;;;;;;;;;5096342;28;20815;-76
2021/10/14 10:15:41;;;;;;;58.13;36.63;;;;;;;;;;5095908;28;20530;-76
2021/10/14 10:18:27;;;;;;;58.80;35.13;;;;;;;;;;5095886;28;20602;-77
2021/10/14 10:20:55;;;;;;;52.47;32.23;;;;;;;;;;5096139;28;20446;-77
2021/10/14 10:23:37;;;;;;;53.33;33.03;;;;;;;;;;5096074;28;20785;-77
2021/10/14 10:26:04;;;;;;;61.60;35.00;;;;;;;;;;5095950;28;20439;-76
2021/10/14 10:28:39;;;;;;;43.50;30.00;;;;;;;;;;5095920;28;20444;-76
2021/10/14 10:31:06;;;;;;;48.63;32.80;;;;;;;;;;5095688;28;20475;-76
2021/10/14 10:33:50;;;;;;;45.77;33.27;;;;;;;;;;5095897;28;20444;-76
2021/10/14 10:36:32;;;;;;;54.33;35.40;;;;;;;;;;5095393;28;20475;-76
2021/10/14 10:39:00;;;;;;;53.33;34.53;;;;;;;;;;5095293;28;20800;-76
2021/10/14 10:41:27;;;;;;;52.97;32.10;;;;;;;;;;5094962;28;20522;-76
2021/10/14 10:44:01;;;;;;;49.50;33.47;;;;;;;;;;5095757;28;20443;-77
2021/10/14 10:46:29;;;;;;;51.60;34.53;;;;;;;;;;5095475;28;20430;-76
2021/10/14 10:49:04;;;;;;;56.13;35.50;;;;;;;;;;5096057;28;20444;-76
2021/10/14 10:51:32;;;;;;;51.17;36.50;;;;;;;;;;5095266;28;20898;-76
2021/10/14 10:53:59;;;;;;;52.63;34.43;;;;;;;;;;5095479;28;20981;-77
2021/10/14 10:56:31;;;;;;;50.87;33.30;;;;;;;;;;5095384;28;20454;-77
2021/10/14 10:59:00;;;;;;;53.07;33.70;;;;;;;;;;5095744;28;20523;-77
2021/10/14 11:01:27;;;;;;;47.93;31.67;;;;;;;;;;5094890;28;20450;-77
2021/10/14 11:03:55;;;;;;;47.60;31.23;;;;;;;;;;5095218;28;20473;-77
2021/10/14 11:06:23;;;;;;;50.13;31.70;;;;;;;;;;5095236;28;20551;-77
2021/10/14 11:08:51;;;;;;;42.47;28.37;;;;;;;;;;5094857;28;20458;-78
2021/10/14 11:11:19;;;;;;;49.70;33.50;;;;;;;;;;5094746;28;20490;-77
2021/10/14 11:13:48;;;;;;;53.17;31.40;;;;;;;;;;5095126;28;20454;-77
2021/10/14 11:16:17;;;;;;;42.57;28.60;;;;;;;;;;5095093;28;20436;-77
2021/10/14 11:18:45;;;;;;;50.10;32.47;;;;;;;;;;5095048;28;20451;-77
2021/10/14 11:21:13;;;;;;;42.43;28.67;;;;;;;;;;5094629;28;20447;-77
2021/10/14 11:23:42;;;;;;;42.13;29.93;;;;;;;;;;5094558;28;20535;-77
2021/10/14 11:26:11;;;;;;;45.73;28.83;;;;;;;;;;5094816;28;20436;-77
2021/10/14 11:28:56;;;;;;;46.40;30.30;;;;;;;;;;5095302;28;20433;-77
2021/10/14 11:31:26;;;;;;;40.80;29.60;;;;;;;;;;5094991;28;20981;-77
2021/10/14 11:33:55;;;;;;;44.03;29.00;;;;;;;;;;5094427;28;20427;-77
2021/10/14 11:36:24;;;;;;;45.03;30.33;;;;;;;;;;5094309;28;20505;-76
2021/10/14 11:38:59;;;;;;;45.37;30.30;;;;;;;;;;5094233;28;20535;-77
2021/10/14 11:41:26;;;;;;;42.83;29.57;;;;;;;;;;5094371;28;20450;-77
2021/10/14 11:43:58;;;;;;;44.93;29.73;;;;;;;;;;5094480;28;20466;-76
2021/10/14 11:46:27;;;;;;;40.30;27.07;;;;;;;;;;5094964;28;20444;-77
2021/10/14 11:48:58;;;;;;;46.53;33.03;;;;;;;;;;5094284;28;20956;-77
2021/10/14 11:51:25;;;;;;;47.43;30.97;;;;;;;;;;5093238;28;20464;-77
2021/10/14 11:53:56;;;;;;;44.57;33.20;;;;;;;;;;5094176;28;20436;-78
2021/10/14 11:56:23;;;;;;;47.03;30.60;;;;;;;;;;5094295;28;20483;-76
2021/10/14 11:58:51;;;;;;;45.17;30.40;;;;;;;;;;5093974;28;20447;-72
2021/10/14 12:01:18;;;;;;;42.03;31.20;;;;;;;;;;5094157;28;20539;-77
2021/10/14 12:03:47;;;;;;;43.73;30.20;;;;;;;;;;5094008;28;20464;-77
2021/10/14 12:06:15;;;;;;;38.97;28.87;;;;;;;;;;5093744;28;20447;-76
2021/10/14 12:08:44;;;;;;;36.77;26.70;;;;;;;;;;5093678;28;20930;-77
2021/10/14 12:11:21;;;;;;;36.23;28.63;;;;;;;;;;5093787;28;21058;-77
2021/10/14 12:13:58;;;;;;;37.10;26.60;;;;;;;;;;5094111;28;20540;-77
2021/10/14 12:16:26;;;;;;;34.83;26.73;;;;;;;;;;5092611;28;20451;-76
2021/10/14 12:19:10;;;;;;;35.73;25.30;;;;;;;;;;5093050;28;20934;-77
2021/10/14 12:21:41;;;;;;;42.23;27.90;;;;;;;;;;5093292;28;20913;-76
2021/10/14 12:24:12;;;;;;;41.90;29.60;;;;;;;;;;5093366;28;20439;-77
2021/10/14 12:26:41;;;;;;;39.37;27.73;;;;;;;;;;5093650;28;20426;-78
2021/10/14 12:29:28;;;;;;;38.00;28.13;;;;;;;;;;5093227;28;20453;-78
2021/10/14 12:32:08;;;;;;;37.93;26.70;;;;;;;;;;5093148;28;20950;-76
2021/10/14 12:34:44;;;;;;;39.27;27.83;;;;;;;;;;5093596;28;20435;-77
2021/10/14 12:37:11;;;;;;;36.60;24.47;;;;;;;;;;5093166;28;20878;-76
2021/10/14 12:39:39;;;;;;;33.63;24.43;;;;;;;;;;5093544;28;20997;-77
2021/10/14 12:42:09;;;;;;;43.33;28.27;;;;;;;;;;5093150;28;20443;-76
2021/10/14 12:44:44;;;;;;;42.00;28.50;;;;;;;;;;5093536;28;20998;-77
2021/10/14 12:47:24;;;;;;;41.27;29.00;;;;;;;;;;5093925;28;20427;-77
2021/10/14 12:52:34;;;;;;;42.47;29.23;;;;;;;;;;5079391;28;20429;-74
2021/10/14 12:55:05;;;;;;;40.60;28.03;;;;;;;;;;5093367;28;20448;-75
2021/10/14 12:57:32;;;;;;;30.07;25.07;;;;;;;;;;5093949;28;20475;-76
2021/10/14 13:00:00;;;;;;;38.63;29.00;;;;;;;;;;5093136;28;20529;-75
2021/10/14 13:02:28;;;;;;;39.70;28.47;;;;;;;;;;5093333;28;20475;-75
2021/10/14 13:04:56;;;;;;;34.77;25.83;;;;;;;;;;5093498;28;20474;-75
2021/10/14 13:07:24;;;;;;;36.50;27.77;;;;;;;;;;5092794;28;20436;-73
2021/10/14 13:09:51;;;;;;;31.73;25.97;;;;;;;;;;5092988;28;20464;-76
2021/10/14 13:12:19;;;;;;;33.67;24.27;;;;;;;;;;5092890;28;20991;-76
2021/10/14 13:14:46;;;;;;;35.70;28.70;;;;;;;;;;5092722;28;20527;-76
2021/10/14 13:17:13;;;;;;;34.07;26.97;;;;;;;;;;5094946;28;20481;-75
2021/10/14 13:19:41;;;;;;;36.27;27.60;;;;;;;;;;5095528;28;20587;-75
2021/10/14 13:22:10;;;;;;;34.70;27.20;;;;;;;;;;5094995;28;20516;-74
2021/10/14 13:24:37;;;;;;;29.70;22.83;;;;;;;;;;5093439;28;20523;-74
2021/10/14 13:27:04;;;;;;;33.43;26.13;;;;;;;;;;5093284;28;20932;-74
2021/10/14 13:29:31;;;;;;;33.57;27.50;;;;;;;;;;5093282;28;20538;-75
2021/10/14 13:31:59;;;;;;;35.27;25.70;;;;;;;;;;5093282;28;20523;-75
2021/10/14 13:34:26;;;;;;;36.77;24.67;;;;;;;;;;5093639;28;20448;-74
2021/10/14 13:36:53;;;;;;;36.50;27.23;;;;;;;;;;5093586;28;20879;-73
2021/10/14 13:39:22;;;;;;;36.77;26.83;;;;;;;;;;5092489;28;20527;-73
2021/10/14 13:41:57;;;;;;;31.10;24.63;;;;;;;;;;5092249;28;20450;-73
2021/10/14 13:44:29;;;;;;;35.70;26.23;;;;;;;;;;5092580;28;20461;-73
2021/10/14 13:46:56;;;;;;;39.13;27.73;;;;;;;;;;5092996;28;20445;-73
2021/10/14 13:49:23;;;;;;;31.07;24.17;;;;;;;;;;5092496;28;20527;-73
2021/10/14 13:51:51;;;;;;;30.90;23.83;;;;;;;;;;5092760;28;20476;-75
2021/10/14 13:54:18;;;;;;;28.87;25.17;;;;;;;;;;5092387;28;20933;-75
2021/10/14 13:56:46;;;;;;;37.40;25.83;;;;;;;;;;5093090;28;20471;-74
2021/10/14 13:59:14;;;;;;;28.27;24.87;;;;;;;;;;5093128;28;20464;-74
2021/10/14 14:01:44;;;;;;;29.33;23.83;;;;;;;;;;5092720;28;20485;-74
2021/10/14 14:04:11;;;;;;;33.83;23.53;;;;;;;;;;5093037;28;21011;-74
2021/10/14 14:06:40;;;;;;;26.60;22.40;;;;;;;;;;5092965;28;20440;-75
2021/10/14 14:09:08;;;;;;;26.47;22.70;;;;;;;;;;5092836;28;20448;-75
2021/10/14 14:11:35;;;;;;;27.30;18.27;;;;;;;;;;5092127;28;20477;-75
2021/10/14 14:14:04;;;;;;;26.37;23.00;;;;;;;;;;5092663;28;20552;-74
2021/10/14 14:16:31;;;;;;;25.40;22.70;;;;;;;;;;5096190;28;20514;-74
2021/10/14 14:18:58;;;;;;;24.63;21.00;;;;;;;;;;5096521;28;20449;-74
2021/10/14 14:21:28;;;;;;;32.40;23.43;;;;;;;;;;5096853;28;20783;-74
2021/10/14 14:23:58;;;;;;;27.23;22.87;;;;;;;;;;5095866;28;20437;-74
2021/10/14 14:26:25;;;;;;;26.60;21.37;;;;;;;;;;5096484;28;20890;-74
2021/10/14 14:28:53;;;;;;;26.47;23.57;;;;;;;;;;5096237;28;20517;-74
2021/10/14 14:31:21;;;;;;;32.80;23.93;;;;;;;;;;5095926;28;20475;-75